sensor_id;sensor_type;location;lat;lon;timestamp;pressure;altitude;pressure_sealevel;temperature;humidity
60920;BME280;59039;52.108;19.942;2024-02-28T00:01:07;100618.10;;;9.90;88.43
60920;BME280;59039;52.108;19.942;2024-02-28T00:03:32;100605.58;;;9.90;88.12
60920;BME280;59039;52.108;19.942;2024-02-28T00:05:57;100590.77;;;9.90;88.86
60920;BME280;59039;52.108;19.942;2024-02-28T00:08:23;100582.27;;;9.88;89.35
60920;BME280;59039;52.108;19.942;2024-02-28T00:10:48;100579.09;;;9.85;89.37
60920;BME280;59039;52.108;19.942;2024-02-28T00:13:14;100576.29;;;9.82;89.36
60920;BME280;59039;52.108;19.942;2024-02-28T00:15:40;100576.71;;;9.81;88.62
60920;BME280;59039;52.108;19.942;2024-02-28T00:18:05;100576.39;;;9.81;89.10
60920;BME280;59039;52.108;19.942;2024-02-28T00:20:30;100577.77;;;9.78;89.14
60920;BME280;59039;52.108;19.942;2024-02-28T00:22:55;100577.55;;;9.76;89.29
60920;BME280;59039;52.108;19.942;2024-02-28T00:25:21;100570.66;;;9.74;89.29
60920;BME280;59039;52.108;19.942;2024-02-28T00:27:46;100571.98;;;9.74;89.42
60920;BME280;59039;52.108;19.942;2024-02-28T00:30:11;100574.21;;;9.73;89.17
60920;BME280;59039;52.108;19.942;2024-02-28T00:32:37;100573.45;;;9.74;88.80
60920;BME280;59039;52.108;19.942;2024-02-28T00:35:02;100577.94;;;9.74;88.66
60920;BME280;59039;52.108;19.942;2024-02-28T00:37:27;100573.24;;;9.74;88.55
60920;BME280;59039;52.108;19.942;2024-02-28T00:39:53;100574.39;;;9.73;88.66
60920;BME280;59039;52.108;19.942;2024-02-28T00:42:18;100574.58;;;9.73;89.06
60920;BME280;59039;52.108;19.942;2024-02-28T00:44:43;100565.63;;;9.74;89.15
60920;BME280;59039;52.108;19.942;2024-02-28T00:47:09;100566.17;;;9.76;89.67
60920;BME280;59039;52.108;19.942;2024-02-28T00:49:34;100565.92;;;9.77;89.42
60920;BME280;59039;52.108;19.942;2024-02-28T00:52:00;100565.66;;;9.78;89.61
60920;BME280;59039;52.108;19.942;2024-02-28T00:54:25;100569.94;;;9.78;89.74
60920;BME280;59039;52.108;19.942;2024-02-28T00:56:50;100578.38;;;9.77;89.17
60920;BME280;59039;52.108;19.942;2024-02-28T00:59:15;100580.84;;;9.76;89.04
60920;BME280;59039;52.108;19.942;2024-02-28T01:01:40;100578.04;;;9.75;88.76
60920;BME280;59039;52.108;19.942;2024-02-28T01:04:06;100580.33;;;9.72;88.76
60920;BME280;59039;52.108;19.942;2024-02-28T01:06:31;100577.98;;;9.68;88.72
60920;BME280;59039;52.108;19.942;2024-02-28T01:08:56;100576.68;;;9.60;88.82
60920;BME280;59039;52.108;19.942;2024-02-28T01:11:21;100579.75;;;9.55;88.98
60920;BME280;59039;52.108;19.942;2024-02-28T01:13:47;100577.22;;;9.51;89.03
60920;BME280;59039;52.108;19.942;2024-02-28T01:16:12;100574.89;;;9.47;89.32
60920;BME280;59039;52.108;19.942;2024-02-28T01:18:37;100577.66;;;9.44;89.59
60920;BME280;59039;52.108;19.942;2024-02-28T01:21:02;100578.88;;;9.43;89.53
60920;BME280;59039;52.108;19.942;2024-02-28T01:23:28;100586.23;;;9.42;89.49
60920;BME280;59039;52.108;19.942;2024-02-28T01:25:53;100588.62;;;9.39;89.58
60920;BME280;59039;52.108;19.942;2024-02-28T01:28:18;100590.21;;;9.38;89.93
60920;BME280;59039;52.108;19.942;2024-02-28T01:30:43;100593.02;;;9.37;90.29
60920;BME280;59039;52.108;19.942;2024-02-28T01:33:08;100597.61;;;9.38;90.64
60920;BME280;59039;52.108;19.942;2024-02-28T01:35:34;100604.95;;;9.39;90.73
60920;BME280;59039;52.108;19.942;2024-02-28T01:37:59;100618.54;;;9.40;90.64
60920;BME280;59039;52.108;19.942;2024-02-28T01:40:24;100621.19;;;9.41;91.13
60920;BME280;59039;52.108;19.942;2024-02-28T01:42:49;100622.65;;;9.43;91.30
60920;BME280;59039;52.108;19.942;2024-02-28T01:45:15;100620.65;;;9.45;91.15
60920;BME280;59039;52.108;19.942;2024-02-28T01:47:41;100621.85;;;9.48;91.15
60920;BME280;59039;52.108;19.942;2024-02-28T01:50:07;100629.27;;;9.50;91.47
60920;BME280;59039;52.108;19.942;2024-02-28T01:52:35;100634.41;;;9.51;92.00
60920;BME280;59039;52.108;19.942;2024-02-28T01:55:01;100637.25;;;9.51;91.83
60920;BME280;59039;52.108;19.942;2024-02-28T01:57:26;100634.23;;;9.52;91.31
60920;BME280;59039;52.108;19.942;2024-02-28T01:59:52;100628.36;;;9.54;91.38
60920;BME280;59039;52.108;19.942;2024-02-28T02:02:18;100624.00;;;9.54;91.62
60920;BME280;59039;52.108;19.942;2024-02-28T02:04:43;100625.77;;;9.54;91.64
60920;BME280;59039;52.108;19.942;2024-02-28T02:07:08;100629.20;;;9.54;91.77
60920;BME280;59039;52.108;19.942;2024-02-28T02:09:34;100623.66;;;9.53;91.33
60920;BME280;59039;52.108;19.942;2024-02-28T02:11:59;100622.56;;;9.55;91.53
60920;BME280;59039;52.108;19.942;2024-02-28T02:14:25;100616.25;;;9.57;91.26
60920;BME280;59039;52.108;19.942;2024-02-28T02:16:50;100619.03;;;9.58;91.39
60920;BME280;59039;52.108;19.942;2024-02-28T02:19:16;100623.58;;;9.60;91.50
60920;BME280;59039;52.108;19.942;2024-02-28T02:21:49;100622.16;;;9.62;91.33
60920;BME280;59039;52.108;19.942;2024-02-28T02:24:14;100622.65;;;9.62;91.62
60920;BME280;59039;52.108;19.942;2024-02-28T02:26:39;100621.39;;;9.62;91.66
60920;BME280;59039;52.108;19.942;2024-02-28T02:29:04;100621.53;;;9.62;91.82
60920;BME280;59039;52.108;19.942;2024-02-28T02:31:30;100618.63;;;9.63;91.86
60920;BME280;59039;52.108;19.942;2024-02-28T02:33:55;100620.35;;;9.61;92.00
60920;BME280;59039;52.108;19.942;2024-02-28T02:36:20;100617.39;;;9.60;91.79
60920;BME280;59039;52.108;19.942;2024-02-28T02:38:45;100621.34;;;9.61;91.86
60920;BME280;59039;52.108;19.942;2024-02-28T02:41:10;100617.98;;;9.60;91.80
60920;BME280;59039;52.108;19.942;2024-02-28T02:43:36;100617.64;;;9.60;91.82
60920;BME280;59039;52.108;19.942;2024-02-28T02:46:01;100614.73;;;9.60;91.70
60920;BME280;59039;52.108;19.942;2024-02-28T02:48:26;100611.67;;;9.60;91.87
60920;BME280;59039;52.108;19.942;2024-02-28T02:50:51;100609.36;;;9.59;91.85
60920;BME280;59039;52.108;19.942;2024-02-28T02:53:17;100606.39;;;9.60;91.48
60920;BME280;59039;52.108;19.942;2024-02-28T02:55:42;100603.39;;;9.59;91.53
60920;BME280;59039;52.108;19.942;2024-02-28T02:58:07;100598.13;;;9.58;91.62
60920;BME280;59039;52.108;19.942;2024-02-28T03:00:32;100593.38;;;9.56;91.40
60920;BME280;59039;52.108;19.942;2024-02-28T03:02:58;100589.35;;;9.55;90.95
60920;BME280;59039;52.108;19.942;2024-02-28T03:05:23;100591.05;;;9.54;91.13
60920;BME280;59039;52.108;19.942;2024-02-28T03:07:48;100596.38;;;9.53;91.05
60920;BME280;59039;52.108;19.942;2024-02-28T03:10:13;100593.74;;;9.50;90.98
60920;BME280;59039;52.108;19.942;2024-02-28T03:12:39;100587.61;;;9.46;91.09
60920;BME280;59039;52.108;19.942;2024-02-28T03:15:05;100593.59;;;9.42;90.96
60920;BME280;59039;52.108;19.942;2024-02-28T03:17:30;100593.17;;;9.41;91.08
60920;BME280;59039;52.108;19.942;2024-02-28T03:19:55;100589.59;;;9.40;90.68
60920;BME280;59039;52.108;19.942;2024-02-28T03:22:20;100592.09;;;9.41;90.82
60920;BME280;59039;52.108;19.942;2024-02-28T03:24:46;100595.35;;;9.39;90.85
60920;BME280;59039;52.108;19.942;2024-02-28T03:27:11;100597.30;;;9.37;90.92
60920;BME280;59039;52.108;19.942;2024-02-28T03:29:36;100598.81;;;9.37;90.67
60920;BME280;59039;52.108;19.942;2024-02-28T03:32:02;100600.58;;;9.35;90.79
60920;BME280;59039;52.108;19.942;2024-02-28T03:34:27;100603.12;;;9.33;90.93
60920;BME280;59039;52.108;19.942;2024-02-28T03:36:52;100605.15;;;9.31;90.61
60920;BME280;59039;52.108;19.942;2024-02-28T03:39:17;100602.97;;;9.29;90.52
60920;BME280;59039;52.108;19.942;2024-02-28T03:41:42;100599.94;;;9.27;90.62
60920;BME280;59039;52.108;19.942;2024-02-28T03:44:08;100597.25;;;9.24;90.62
60920;BME280;59039;52.108;19.942;2024-02-28T03:46:33;100599.02;;;9.23;90.56
60920;BME280;59039;52.108;19.942;2024-02-28T03:48:58;100602.69;;;9.18;90.45
60920;BME280;59039;52.108;19.942;2024-02-28T03:51:23;100606.73;;;9.13;90.56
60920;BME280;59039;52.108;19.942;2024-02-28T03:53:49;100604.32;;;9.10;90.61
60920;BME280;59039;52.108;19.942;2024-02-28T03:56:24;100603.91;;;9.07;90.54
60920;BME280;59039;52.108;19.942;2024-02-28T03:58:50;100603.45;;;9.02;90.75
60920;BME280;59039;52.108;19.942;2024-02-28T04:01:15;100606.91;;;8.98;90.79
60920;BME280;59039;52.108;19.942;2024-02-28T04:03:41;100605.73;;;8.95;90.65
60920;BME280;59039;52.108;19.942;2024-02-28T04:06:06;100604.44;;;8.91;90.83
60920;BME280;59039;52.108;19.942;2024-02-28T04:08:31;100603.66;;;8.88;90.91
60920;BME280;59039;52.108;19.942;2024-02-28T04:10:56;100604.70;;;8.84;91.09
60920;BME280;59039;52.108;19.942;2024-02-28T04:13:21;100610.38;;;8.82;91.18
60920;BME280;59039;52.108;19.942;2024-02-28T04:15:47;100610.58;;;8.77;91.22
60920;BME280;59039;52.108;19.942;2024-02-28T04:18:12;100613.02;;;8.70;91.38
60920;BME280;59039;52.108;19.942;2024-02-28T04:20:37;100616.70;;;8.65;91.38
60920;BME280;59039;52.108;19.942;2024-02-28T04:23:02;100616.99;;;8.64;91.33
60920;BME280;59039;52.108;19.942;2024-02-28T04:25:28;100616.66;;;8.62;91.45
60920;BME280;59039;52.108;19.942;2024-02-28T04:27:53;100619.04;;;8.59;91.43
60920;BME280;59039;52.108;19.942;2024-02-28T04:30:18;100617.38;;;8.56;91.69
60920;BME280;59039;52.108;19.942;2024-02-28T04:32:43;100616.79;;;8.52;91.76
60920;BME280;59039;52.108;19.942;2024-02-28T04:35:09;100618.67;;;8.49;91.79
60920;BME280;59039;52.108;19.942;2024-02-28T04:37:35;100621.77;;;8.47;91.88
60920;BME280;59039;52.108;19.942;2024-02-28T04:40:01;100620.13;;;8.45;92.07
60920;BME280;59039;52.108;19.942;2024-02-28T04:42:26;100619.77;;;8.45;92.24
60920;BME280;59039;52.108;19.942;2024-02-28T04:44:51;100624.34;;;8.45;92.00
60920;BME280;59039;52.108;19.942;2024-02-28T04:47:16;100622.11;;;8.43;92.11
60920;BME280;59039;52.108;19.942;2024-02-28T04:49:41;100624.48;;;8.41;92.27
60920;BME280;59039;52.108;19.942;2024-02-28T04:52:07;100627.08;;;8.40;92.54
60920;BME280;59039;52.108;19.942;2024-02-28T04:54:32;100631.11;;;8.39;92.34
60920;BME280;59039;52.108;19.942;2024-02-28T04:56:57;100631.05;;;8.38;92.28
60920;BME280;59039;52.108;19.942;2024-02-28T04:59:23;100631.38;;;8.38;91.99
60920;BME280;59039;52.108;19.942;2024-02-28T05:01:48;100635.34;;;8.38;92.06
60920;BME280;59039;52.108;19.942;2024-02-28T05:04:13;100637.45;;;8.39;91.89
60920;BME280;59039;52.108;19.942;2024-02-28T05:06:39;100643.87;;;8.38;92.20
60920;BME280;59039;52.108;19.942;2024-02-28T05:09:04;100645.96;;;8.36;91.89
60920;BME280;59039;52.108;19.942;2024-02-28T05:11:29;100647.70;;;8.35;92.08
60920;BME280;59039;52.108;19.942;2024-02-28T05:13:55;100653.91;;;8.32;92.10
60920;BME280;59039;52.108;19.942;2024-02-28T05:16:20;100654.31;;;8.30;92.07
60920;BME280;59039;52.108;19.942;2024-02-28T05:18:45;100653.02;;;8.26;92.13
60920;BME280;59039;52.108;19.942;2024-02-28T05:21:11;100654.45;;;8.22;92.20
60920;BME280;59039;52.108;19.942;2024-02-28T05:23:36;100659.54;;;8.20;92.22
60920;BME280;59039;52.108;19.942;2024-02-28T05:26:02;100661.48;;;8.18;92.40
60920;BME280;59039;52.108;19.942;2024-02-28T05:28:27;100661.91;;;8.17;92.62
60920;BME280;59039;52.108;19.942;2024-02-28T05:30:53;100668.95;;;8.17;92.56
60920;BME280;59039;52.108;19.942;2024-02-28T05:33:18;100670.01;;;8.18;92.51
60920;BME280;59039;52.108;19.942;2024-02-28T05:35:43;100671.64;;;8.18;92.54
60920;BME280;59039;52.108;19.942;2024-02-28T05:38:08;100675.89;;;8.16;92.62
60920;BME280;59039;52.108;19.942;2024-02-28T05:40:33;100675.35;;;8.16;92.68
60920;BME280;59039;52.108;19.942;2024-02-28T05:42:59;100677.06;;;8.15;92.66
60920;BME280;59039;52.108;19.942;2024-02-28T05:45:24;100680.41;;;8.14;93.09
60920;BME280;59039;52.108;19.942;2024-02-28T05:47:49;100680.41;;;8.12;92.90
60920;BME280;59039;52.108;19.942;2024-02-28T05:50:14;100683.17;;;8.11;92.94
60920;BME280;59039;52.108;19.942;2024-02-28T05:52:43;100682.65;;;8.11;93.28
60920;BME280;59039;52.108;19.942;2024-02-28T05:55:08;100685.61;;;8.10;93.43
60920;BME280;59039;52.108;19.942;2024-02-28T05:57:33;100688.39;;;8.09;92.90
60920;BME280;59039;52.108;19.942;2024-02-28T05:59:58;100691.41;;;8.10;92.56
60920;BME280;59039;52.108;19.942;2024-02-28T06:02:24;100695.36;;;8.10;92.78
60920;BME280;59039;52.108;19.942;2024-02-28T06:04:49;100695.84;;;8.11;92.48
60920;BME280;59039;52.108;19.942;2024-02-28T06:07:14;100698.27;;;8.12;92.60
60920;BME280;59039;52.108;19.942;2024-02-28T06:09:39;100698.68;;;8.13;92.67
60920;BME280;59039;52.108;19.942;2024-02-28T06:12:05;100700.91;;;8.13;92.88
60920;BME280;59039;52.108;19.942;2024-02-28T06:14:30;100698.77;;;8.12;93.01
60920;BME280;59039;52.108;19.942;2024-02-28T06:16:55;100696.36;;;8.13;93.00
60920;BME280;59039;52.108;19.942;2024-02-28T06:19:21;100699.44;;;8.15;92.89
60920;BME280;59039;52.108;19.942;2024-02-28T06:21:46;100702.85;;;8.15;93.10
60920;BME280;59039;52.108;19.942;2024-02-28T06:24:11;100703.69;;;8.16;92.84
60920;BME280;59039;52.108;19.942;2024-02-28T06:26:36;100705.23;;;8.17;92.80
60920;BME280;59039;52.108;19.942;2024-02-28T06:29:01;100705.55;;;8.18;92.93
60920;BME280;59039;52.108;19.942;2024-02-28T06:31:27;100706.31;;;8.17;93.19
60920;BME280;59039;52.108;19.942;2024-02-28T06:33:53;100708.62;;;8.15;93.09
60920;BME280;59039;52.108;19.942;2024-02-28T06:36:18;100709.27;;;8.14;93.10
60920;BME280;59039;52.108;19.942;2024-02-28T06:38:43;100710.00;;;8.14;93.11
60920;BME280;59039;52.108;19.942;2024-02-28T06:41:08;100709.97;;;8.14;92.88
60920;BME280;59039;52.108;19.942;2024-02-28T06:43:34;100713.35;;;8.15;93.22
60920;BME280;59039;52.108;19.942;2024-02-28T06:45:59;100715.33;;;8.15;93.14
60920;BME280;59039;52.108;19.942;2024-02-28T06:48:24;100718.44;;;8.15;93.04
60920;BME280;59039;52.108;19.942;2024-02-28T06:50:49;100721.17;;;8.16;93.18
60920;BME280;59039;52.108;19.942;2024-02-28T06:53:15;100719.56;;;8.16;92.98
60920;BME280;59039;52.108;19.942;2024-02-28T06:55:40;100725.08;;;8.17;93.16
60920;BME280;59039;52.108;19.942;2024-02-28T06:58:05;100722.39;;;8.19;93.10
60920;BME280;59039;52.108;19.942;2024-02-28T07:00:30;100725.17;;;8.20;93.09
60920;BME280;59039;52.108;19.942;2024-02-28T07:02:55;100728.08;;;8.20;93.23
60920;BME280;59039;52.108;19.942;2024-02-28T07:05:21;100731.30;;;8.21;93.20
60920;BME280;59039;52.108;19.942;2024-02-28T07:07:47;100732.73;;;8.21;93.40
60920;BME280;59039;52.108;19.942;2024-02-28T07:10:12;100732.39;;;8.21;93.27
60920;BME280;59039;52.108;19.942;2024-02-28T07:12:37;100736.99;;;8.22;93.03
60920;BME280;59039;52.108;19.942;2024-02-28T07:15:03;100737.87;;;8.22;92.90
60920;BME280;59039;52.108;19.942;2024-02-28T07:17:28;100731.66;;;8.23;93.09
60920;BME280;59039;52.108;19.942;2024-02-28T07:19:53;100736.39;;;8.24;93.07
60920;BME280;59039;52.108;19.942;2024-02-28T07:22:19;100744.62;;;8.25;93.07
60920;BME280;59039;52.108;19.942;2024-02-28T07:24:44;100743.50;;;8.26;93.10
60920;BME280;59039;52.108;19.942;2024-02-28T07:27:09;100751.66;;;8.25;93.11
60920;BME280;59039;52.108;19.942;2024-02-28T07:29:36;100755.80;;;8.25;93.24
60920;BME280;59039;52.108;19.942;2024-02-28T07:32:02;100756.14;;;8.26;93.34
60920;BME280;59039;52.108;19.942;2024-02-28T07:34:27;100756.59;;;8.26;93.11
60920;BME280;59039;52.108;19.942;2024-02-28T07:36:52;100757.84;;;8.27;93.25
60920;BME280;59039;52.108;19.942;2024-02-28T07:39:17;100759.29;;;8.29;93.26
60920;BME280;59039;52.108;19.942;2024-02-28T07:41:42;100762.04;;;8.30;93.21
60920;BME280;59039;52.108;19.942;2024-02-28T07:44:08;100758.29;;;8.32;93.37
60920;BME280;59039;52.108;19.942;2024-02-28T07:46:34;100760.64;;;8.32;93.47
60920;BME280;59039;52.108;19.942;2024-02-28T07:49:00;100759.48;;;8.33;93.68
60920;BME280;59039;52.108;19.942;2024-02-28T07:51:25;100757.89;;;8.34;93.40
60920;BME280;59039;52.108;19.942;2024-02-28T07:53:50;100763.55;;;8.38;93.38
60920;BME280;59039;52.108;19.942;2024-02-28T07:56:16;100761.27;;;8.40;93.36
60920;BME280;59039;52.108;19.942;2024-02-28T07:58:42;100765.32;;;8.43;93.62
60920;BME280;59039;52.108;19.942;2024-02-28T08:01:07;100764.88;;;8.46;93.51
60920;BME280;59039;52.108;19.942;2024-02-28T08:03:32;100767.48;;;8.47;93.63
60920;BME280;59039;52.108;19.942;2024-02-28T08:05:57;100768.05;;;8.49;93.61
60920;BME280;59039;52.108;19.942;2024-02-28T08:08:22;100766.47;;;8.53;93.78
60920;BME280;59039;52.108;19.942;2024-02-28T08:10:48;100768.77;;;8.55;93.46
60920;BME280;59039;52.108;19.942;2024-02-28T08:13:13;100771.41;;;8.58;93.35
60920;BME280;59039;52.108;19.942;2024-02-28T08:15:39;100772.11;;;8.61;93.40
60920;BME280;59039;52.108;19.942;2024-02-28T08:18:04;100770.11;;;8.63;93.40
60920;BME280;59039;52.108;19.942;2024-02-28T08:20:29;100768.66;;;8.65;93.74
60920;BME280;59039;52.108;19.942;2024-02-28T08:22:55;100768.52;;;8.67;93.42
60920;BME280;59039;52.108;19.942;2024-02-28T08:25:20;100769.45;;;8.68;93.21
60920;BME280;59039;52.108;19.942;2024-02-28T08:27:45;100768.47;;;8.69;93.42
60920;BME280;59039;52.108;19.942;2024-02-28T08:30:10;100771.58;;;8.71;93.56
60920;BME280;59039;52.108;19.942;2024-02-28T08:32:36;100773.38;;;8.73;93.71
60920;BME280;59039;52.108;19.942;2024-02-28T08:35:01;100773.94;;;8.75;93.54
60920;BME280;59039;52.108;19.942;2024-02-28T08:37:26;100770.14;;;8.77;93.59
60920;BME280;59039;52.108;19.942;2024-02-28T08:39:51;100771.27;;;8.78;93.38
60920;BME280;59039;52.108;19.942;2024-02-28T08:42:17;100774.76;;;8.80;93.54
60920;BME280;59039;52.108;19.942;2024-02-28T08:44:42;100777.85;;;8.82;93.70
60920;BME280;59039;52.108;19.942;2024-02-28T08:47:07;100776.05;;;8.84;93.55
60920;BME280;59039;52.108;19.942;2024-02-28T08:49:32;100777.72;;;8.85;94.06
60920;BME280;59039;52.108;19.942;2024-02-28T08:51:57;100777.10;;;8.86;94.33
60920;BME280;59039;52.108;19.942;2024-02-28T08:54:23;100777.98;;;8.88;93.97
60920;BME280;59039;52.108;19.942;2024-02-28T08:56:48;100778.59;;;8.92;93.99
60920;BME280;59039;52.108;19.942;2024-02-28T08:59:13;100779.39;;;8.95;94.04
60920;BME280;59039;52.108;19.942;2024-02-28T09:01:38;100775.56;;;8.97;94.22
60920;BME280;59039;52.108;19.942;2024-02-28T09:04:04;100775.27;;;9.01;94.17
60920;BME280;59039;52.108;19.942;2024-02-28T09:06:29;100779.88;;;9.04;94.37
60920;BME280;59039;52.108;19.942;2024-02-28T09:08:54;100778.84;;;9.07;94.09
60920;BME280;59039;52.108;19.942;2024-02-28T09:11:19;100782.23;;;9.10;93.89
60920;BME280;59039;52.108;19.942;2024-02-28T09:13:45;100785.04;;;9.11;93.97
60920;BME280;59039;52.108;19.942;2024-02-28T09:16:10;100784.20;;;9.12;94.10
60920;BME280;59039;52.108;19.942;2024-02-28T09:18:35;100787.52;;;9.13;94.10
60920;BME280;59039;52.108;19.942;2024-02-28T09:21:00;100790.66;;;9.15;93.96
60920;BME280;59039;52.108;19.942;2024-02-28T09:23:26;100794.95;;;9.15;94.13
60920;BME280;59039;52.108;19.942;2024-02-28T09:25:51;100795.90;;;9.17;94.05
60920;BME280;59039;52.108;19.942;2024-02-28T09:28:16;100798.16;;;9.18;94.08
60920;BME280;59039;52.108;19.942;2024-02-28T09:30:42;100799.65;;;9.19;94.19
60920;BME280;59039;52.108;19.942;2024-02-28T09:33:07;100799.60;;;9.20;93.98
60920;BME280;59039;52.108;19.942;2024-02-28T09:35:33;100804.20;;;9.21;94.18
60920;BME280;59039;52.108;19.942;2024-02-28T09:37:58;100808.77;;;9.23;94.35
60920;BME280;59039;52.108;19.942;2024-02-28T09:40:23;100805.00;;;9.22;94.42
60920;BME280;59039;52.108;19.942;2024-02-28T09:42:52;100802.20;;;9.23;94.43
60920;BME280;59039;52.108;19.942;2024-02-28T09:45:19;100809.39;;;9.24;94.40
60920;BME280;59039;52.108;19.942;2024-02-28T09:47:45;100807.63;;;9.23;94.59
60920;BME280;59039;52.108;19.942;2024-02-28T09:50:11;100810.48;;;9.24;94.32
60920;BME280;59039;52.108;19.942;2024-02-28T09:52:37;100807.81;;;9.25;94.31
60920;BME280;59039;52.108;19.942;2024-02-28T09:55:03;100811.28;;;9.25;94.32
60920;BME280;59039;52.108;19.942;2024-02-28T09:57:29;100811.70;;;9.26;94.47
60920;BME280;59039;52.108;19.942;2024-02-28T09:59:56;100812.02;;;9.26;94.66
60920;BME280;59039;52.108;19.942;2024-02-28T10:02:23;100812.41;;;9.27;94.61
60920;BME280;59039;52.108;19.942;2024-02-28T10:04:49;100811.47;;;9.27;94.78
60920;BME280;59039;52.108;19.942;2024-02-28T10:07:14;100815.61;;;9.27;94.73
60920;BME280;59039;52.108;19.942;2024-02-28T10:09:41;100822.09;;;9.29;94.40
60920;BME280;59039;52.108;19.942;2024-02-28T10:12:06;100818.39;;;9.30;94.13
60920;BME280;59039;52.108;19.942;2024-02-28T10:14:31;100822.20;;;9.32;94.06
60920;BME280;59039;52.108;19.942;2024-02-28T10:16:56;100820.67;;;9.33;94.50
60920;BME280;59039;52.108;19.942;2024-02-28T10:19:22;100822.89;;;9.34;94.47
60920;BME280;59039;52.108;19.942;2024-02-28T10:21:47;100822.61;;;9.35;94.39
60920;BME280;59039;52.108;19.942;2024-02-28T10:24:12;100821.91;;;9.38;94.20
60920;BME280;59039;52.108;19.942;2024-02-28T10:26:44;100826.98;;;9.39;94.39
60920;BME280;59039;52.108;19.942;2024-02-28T10:29:10;100830.55;;;9.40;94.45
60920;BME280;59039;52.108;19.942;2024-02-28T10:31:35;100831.50;;;9.39;94.61
60920;BME280;59039;52.108;19.942;2024-02-28T10:34:01;100831.05;;;9.40;94.48
60920;BME280;59039;52.108;19.942;2024-02-28T10:36:30;100833.67;;;9.41;94.35
60920;BME280;59039;52.108;19.942;2024-02-28T10:38:57;100837.37;;;9.42;94.18
60920;BME280;59039;52.108;19.942;2024-02-28T10:41:23;100838.98;;;9.43;94.17
60920;BME280;59039;52.108;19.942;2024-02-28T10:43:49;100841.40;;;9.44;94.10
60920;BME280;59039;52.108;19.942;2024-02-28T10:46:15;100846.25;;;9.44;94.02
60920;BME280;59039;52.108;19.942;2024-02-28T10:48:41;100845.23;;;9.46;93.89
60920;BME280;59039;52.108;19.942;2024-02-28T10:51:06;100849.50;;;9.47;93.70
60920;BME280;59039;52.108;19.942;2024-02-28T10:53:37;100845.19;;;9.46;93.56
60920;BME280;59039;52.108;19.942;2024-02-28T10:56:03;100847.17;;;9.46;93.46
60920;BME280;59039;52.108;19.942;2024-02-28T10:58:34;100846.35;;;9.45;93.44
60920;BME280;59039;52.108;19.942;2024-02-28T11:01:00;100848.94;;;9.45;93.35
60920;BME280;59039;52.108;19.942;2024-02-28T11:03:26;100849.68;;;9.45;93.63
60920;BME280;59039;52.108;19.942;2024-02-28T11:05:51;100848.88;;;9.43;93.33
60920;BME280;59039;52.108;19.942;2024-02-28T11:08:27;100852.82;;;9.42;93.25
60920;BME280;59039;52.108;19.942;2024-02-28T11:10:57;100855.59;;;9.41;93.25
60920;BME280;59039;52.108;19.942;2024-02-28T11:13:23;100860.09;;;9.39;93.16
60920;BME280;59039;52.108;19.942;2024-02-28T11:15:49;100863.69;;;9.38;93.12
60920;BME280;59039;52.108;19.942;2024-02-28T11:18:14;100861.70;;;9.37;93.02
60920;BME280;59039;52.108;19.942;2024-02-28T11:20:39;100863.65;;;9.36;93.13
60920;BME280;59039;52.108;19.942;2024-02-28T11:23:07;100859.39;;;9.35;93.19
60920;BME280;59039;52.108;19.942;2024-02-28T11:25:33;100862.89;;;9.34;93.11
60920;BME280;59039;52.108;19.942;2024-02-28T11:27:58;100866.35;;;9.34;93.12
60920;BME280;59039;52.108;19.942;2024-02-28T11:30:25;100860.27;;;9.33;93.03
60920;BME280;59039;52.108;19.942;2024-02-28T11:32:52;100863.87;;;9.33;92.73
60920;BME280;59039;52.108;19.942;2024-02-28T11:35:17;100867.91;;;9.31;92.95
60920;BME280;59039;52.108;19.942;2024-02-28T11:37:45;100872.64;;;9.28;93.02
60920;BME280;59039;52.108;19.942;2024-02-28T11:40:10;100876.85;;;9.28;92.97
60920;BME280;59039;52.108;19.942;2024-02-28T11:42:35;100877.67;;;9.27;92.98
60920;BME280;59039;52.108;19.942;2024-02-28T11:45:01;100878.85;;;9.27;92.97
60920;BME280;59039;52.108;19.942;2024-02-28T11:47:27;100877.93;;;9.26;92.91
60920;BME280;59039;52.108;19.942;2024-02-28T11:49:52;100879.43;;;9.23;92.98
60920;BME280;59039;52.108;19.942;2024-02-28T11:52:18;100883.95;;;9.21;92.86
60920;BME280;59039;52.108;19.942;2024-02-28T11:54:44;100881.52;;;9.20;92.99
60920;BME280;59039;52.108;19.942;2024-02-28T11:57:11;100885.03;;;9.19;93.00
60920;BME280;59039;52.108;19.942;2024-02-28T11:59:36;100888.79;;;9.17;93.28
60920;BME280;59039;52.108;19.942;2024-02-28T12:02:11;100888.59;;;9.15;93.21
60920;BME280;59039;52.108;19.942;2024-02-28T12:04:36;100887.45;;;9.16;93.31
60920;BME280;59039;52.108;19.942;2024-02-28T12:07:02;100887.94;;;9.14;93.33
60920;BME280;59039;52.108;19.942;2024-02-28T12:09:27;100889.88;;;9.13;93.55
60920;BME280;59039;52.108;19.942;2024-02-28T12:11:52;100888.61;;;9.11;93.68
60920;BME280;59039;52.108;19.942;2024-02-28T12:14:17;100888.23;;;9.09;93.97
60920;BME280;59039;52.108;19.942;2024-02-28T12:16:43;100888.89;;;9.10;93.76
60920;BME280;59039;52.108;19.942;2024-02-28T12:19:09;100888.15;;;9.10;93.81
60920;BME280;59039;52.108;19.942;2024-02-28T12:21:34;100889.36;;;9.11;94.11
60920;BME280;59039;52.108;19.942;2024-02-28T12:23:59;100883.02;;;9.11;94.02
60920;BME280;59039;52.108;19.942;2024-02-28T12:26:24;100891.72;;;9.10;94.16
60920;BME280;59039;52.108;19.942;2024-02-28T12:28:50;100888.48;;;9.08;94.27
60920;BME280;59039;52.108;19.942;2024-02-28T12:31:15;100894.79;;;9.07;94.24
60920;BME280;59039;52.108;19.942;2024-02-28T12:33:40;100889.83;;;9.05;94.00
60920;BME280;59039;52.108;19.942;2024-02-28T12:36:06;100891.09;;;9.05;93.89
60920;BME280;59039;52.108;19.942;2024-02-28T12:38:31;100893.48;;;9.05;93.94
60920;BME280;59039;52.108;19.942;2024-02-28T12:40:57;100895.66;;;9.05;94.05